sensor_id;sensor_type;location;lat;lon;timestamp;pressure;altitude;pressure_sealevel;temperature;humidity
20630;BME280;17386;43.846;25.950;2023-02-12T00:01:29;102392.75;;;1.92;79.74
20630;BME280;17386;43.846;25.950;2023-02-12T00:03:54;102383.19;;;1.95;79.97
20630;BME280;17386;43.846;25.950;2023-02-12T00:06:20;102387.34;;;1.86;79.62
20630;BME280;17386;43.846;25.950;2023-02-12T00:08:49;102380.97;;;1.77;80.39
20630;BME280;17386;43.846;25.950;2023-02-12T00:11:17;102381.66;;;1.71;80.61
20630;BME280;17386;43.846;25.950;2023-02-12T00:13:43;102380.84;;;1.72;80.81
20630;BME280;17386;43.846;25.950;2023-02-12T00:16:13;102376.16;;;1.60;81.45
20630;BME280;17386;43.846;25.950;2023-02-12T00:18:39;102378.69;;;1.57;82.02
20630;BME280;17386;43.846;25.950;2023-02-12T00:21:05;102370.09;;;1.63;82.23
20630;BME280;17386;43.846;25.950;2023-02-12T00:23:32;102357.97;;;1.65;81.58
20630;BME280;17386;43.846;25.950;2023-02-12T00:25:58;102358.69;;;1.59;82.23
20630;BME280;17386;43.846;25.950;2023-02-12T00:28:23;102373.88;;;1.41;82.87
20630;BME280;17386;43.846;25.950;2023-02-12T00:30:48;102387.84;;;1.42;83.00
20630;BME280;17386;43.846;25.950;2023-02-12T00:33:14;102375.66;;;1.42;83.70
20630;BME280;17386;43.846;25.950;2023-02-12T00:35:39;102374.69;;;1.39;83.88
20630;BME280;17386;43.846;25.950;2023-02-12T00:38:05;102381.59;;;1.36;84.63
20630;BME280;17386;43.846;25.950;2023-02-12T00:40:30;102381.72;;;1.41;84.33
20630;BME280;17386;43.846;25.950;2023-02-12T00:42:56;102374.59;;;1.35;84.28
20630;BME280;17386;43.846;25.950;2023-02-12T00:45:21;102376.25;;;1.32;84.65
20630;BME280;17386;43.846;25.950;2023-02-12T00:47:46;102372.00;;;1.37;84.65
20630;BME280;17386;43.846;25.950;2023-02-12T00:50:12;102356.22;;;1.34;84.97
20630;BME280;17386;43.846;25.950;2023-02-12T00:52:37;102354.53;;;1.36;85.27
20630;BME280;17386;43.846;25.950;2023-02-12T00:55:03;102343.84;;;1.28;85.51
20630;BME280;17386;43.846;25.950;2023-02-12T00:57:29;102344.47;;;1.20;86.02
20630;BME280;17386;43.846;25.950;2023-02-12T00:59:54;102339.09;;;1.15;86.22
20630;BME280;17386;43.846;25.950;2023-02-12T01:02:20;102335.63;;;1.16;86.31
20630;BME280;17386;43.846;25.950;2023-02-12T01:04:45;102338.31;;;1.18;86.48
20630;BME280;17386;43.846;25.950;2023-02-12T01:07:11;102332.28;;;1.20;86.77
20630;BME280;17386;43.846;25.950;2023-02-12T01:09:36;102313.47;;;1.35;86.17
20630;BME280;17386;43.846;25.950;2023-02-12T01:12:01;102315.19;;;1.33;86.37
20630;BME280;17386;43.846;25.950;2023-02-12T01:14:27;102313.56;;;1.38;85.93
20630;BME280;17386;43.846;25.950;2023-02-12T01:16:52;102324.09;;;1.40;86.00
20630;BME280;17386;43.846;25.950;2023-02-12T01:19:18;102314.56;;;1.43;85.87
20630;BME280;17386;43.846;25.950;2023-02-12T01:21:43;102321.88;;;1.55;85.44
20630;BME280;17386;43.846;25.950;2023-02-12T01:24:09;102308.53;;;1.46;85.84
20630;BME280;17386;43.846;25.950;2023-02-12T01:26:34;102307.81;;;1.51;85.73
20630;BME280;17386;43.846;25.950;2023-02-12T01:29:04;102313.09;;;1.53;85.69
20630;BME280;17386;43.846;25.950;2023-02-12T01:31:37;102309.28;;;1.42;86.70
20630;BME280;17386;43.846;25.950;2023-02-12T01:34:04;102308.56;;;1.47;86.80
20630;BME280;17386;43.846;25.950;2023-02-12T01:36:30;102326.69;;;1.40;87.36
20630;BME280;17386;43.846;25.950;2023-02-12T01:38:56;102335.34;;;1.37;87.87
20630;BME280;17386;43.846;25.950;2023-02-12T01:41:32;102337.06;;;1.36;88.50
20630;BME280;17386;43.846;25.950;2023-02-12T01:46:29;102348.56;;;1.42;89.12
20630;BME280;17386;43.846;25.950;2023-02-12T01:48:55;102351.13;;;1.39;89.32
20630;BME280;17386;43.846;25.950;2023-02-12T01:51:21;102342.41;;;1.40;89.48
20630;BME280;17386;43.846;25.950;2023-02-12T01:53:50;102337.88;;;1.34;90.01
20630;BME280;17386;43.846;25.950;2023-02-12T01:56:18;102338.03;;;1.39;89.99
20630;BME280;17386;43.846;25.950;2023-02-12T01:58:46;102334.03;;;1.21;91.04
20630;BME280;17386;43.846;25.950;2023-02-12T02:01:17;102323.66;;;1.24;90.93
20630;BME280;17386;43.846;25.950;2023-02-12T02:03:46;102329.22;;;1.36;90.70
20630;BME280;17386;43.846;25.950;2023-02-12T02:06:24;102324.59;;;1.26;90.62
20630;BME280;17386;43.846;25.950;2023-02-12T02:08:52;102324.50;;;1.23;91.63
20630;BME280;17386;43.846;25.950;2023-02-12T02:11:17;102317.84;;;1.36;90.80
20630;BME280;17386;43.846;25.950;2023-02-12T02:14:02;102324.25;;;1.46;90.19
20630;BME280;17386;43.846;25.950;2023-02-12T02:25:19;102329.81;;;1.26;92.30
20630;BME280;17386;43.846;25.950;2023-02-12T02:33:07;102324.78;;;1.34;92.22
20630;BME280;17386;43.846;25.950;2023-02-12T02:41:19;102338.38;;;1.21;93.34
20630;BME280;17386;43.846;25.950;2023-02-12T02:43:51;102335.75;;;1.19;93.93
20630;BME280;17386;43.846;25.950;2023-02-12T02:46:22;102334.84;;;1.19;94.20
20630;BME280;17386;43.846;25.950;2023-02-12T02:48:57;102332.28;;;1.20;94.06
20630;BME280;17386;43.846;25.950;2023-02-12T02:51:29;102335.91;;;1.25;93.92
20630;BME280;17386;43.846;25.950;2023-02-12T02:54:25;102349.06;;;1.28;93.70
20630;BME280;17386;43.846;25.950;2023-02-12T02:56:55;102343.84;;;1.28;94.01
20630;BME280;17386;43.846;25.950;2023-02-12T02:59:28;102344.69;;;1.27;94.02
20630;BME280;17386;43.846;25.950;2023-02-12T03:02:05;102355.91;;;1.23;94.41
20630;BME280;17386;43.846;25.950;2023-02-12T03:04:44;102355.38;;;1.35;94.00
20630;BME280;17386;43.846;25.950;2023-02-12T03:07:34;102364.28;;;1.42;93.16
20630;BME280;17386;43.846;25.950;2023-02-12T03:10:05;102372.19;;;1.43;92.77
20630;BME280;17386;43.846;25.950;2023-02-12T03:15:32;102370.31;;;1.38;93.08
20630;BME280;17386;43.846;25.950;2023-02-12T03:18:00;102376.28;;;1.33;93.06
20630;BME280;17386;43.846;25.950;2023-02-12T03:20:34;102373.84;;;1.40;92.83
20630;BME280;17386;43.846;25.950;2023-02-12T03:25:33;102382.53;;;1.39;92.98
20630;BME280;17386;43.846;25.950;2023-02-12T03:28:19;102373.13;;;1.45;93.05
20630;BME280;17386;43.846;25.950;2023-02-12T03:31:09;102368.56;;;1.38;93.41
20630;BME280;17386;43.846;25.950;2023-02-12T03:36:42;102380.91;;;1.44;93.29
20630;BME280;17386;43.846;25.950;2023-02-12T03:42:09;102381.34;;;1.27;95.19
20630;BME280;17386;43.846;25.950;2023-02-12T03:45:29;102383.97;;;1.27;95.12
20630;BME280;17386;43.846;25.950;2023-02-12T03:47:47;102391.75;;;1.24;95.90
20630;BME280;17386;43.846;25.950;2023-02-12T03:50:45;102386.41;;;1.21;96.39
20630;BME280;17386;43.846;25.950;2023-02-12T03:53:12;102381.56;;;1.35;95.96
20630;BME280;17386;43.846;25.950;2023-02-12T03:55:41;102382.59;;;1.40;95.56
20630;BME280;17386;43.846;25.950;2023-02-12T03:58:09;102383.88;;;1.24;95.99
20630;BME280;17386;43.846;25.950;2023-02-12T04:00:38;102372.28;;;1.16;96.63
20630;BME280;17386;43.846;25.950;2023-02-12T04:03:05;102386.56;;;1.27;96.31
20630;BME280;17386;43.846;25.950;2023-02-12T04:05:31;102382.91;;;1.21;96.51
20630;BME280;17386;43.846;25.950;2023-02-12T04:07:57;102380.31;;;1.22;96.53
20630;BME280;17386;43.846;25.950;2023-02-12T04:10:29;102381.59;;;1.36;96.17
20630;BME280;17386;43.846;25.950;2023-02-12T04:18:10;102394.97;;;1.46;95.48
20630;BME280;17386;43.846;25.950;2023-02-12T04:20:52;102394.00;;;1.44;95.04
20630;BME280;17386;43.846;25.950;2023-02-12T04:24:11;102402.41;;;1.30;95.75
20630;BME280;17386;43.846;25.950;2023-02-12T04:26:38;102402.47;;;1.33;96.24
20630;BME280;17386;43.846;25.950;2023-02-12T04:29:25;102401.97;;;1.47;95.27
20630;BME280;17386;43.846;25.950;2023-02-12T04:34:34;102394.31;;;1.54;94.73
20630;BME280;17386;43.846;25.950;2023-02-12T04:37:16;102389.13;;;1.56;94.75
20630;BME280;17386;43.846;25.950;2023-02-12T04:39:43;102396.34;;;1.33;95.45
20630;BME280;17386;43.846;25.950;2023-02-12T04:42:10;102410.06;;;1.24;96.14
20630;BME280;17386;43.846;25.950;2023-02-12T04:44:40;102402.53;;;1.36;95.67
20630;BME280;17386;43.846;25.950;2023-02-12T04:47:06;102410.34;;;1.35;95.55
20630;BME280;17386;43.846;25.950;2023-02-12T04:49:32;102420.13;;;1.41;95.42
20630;BME280;17386;43.846;25.950;2023-02-12T04:51:57;102416.00;;;1.49;95.36
20630;BME280;17386;43.846;25.950;2023-02-12T04:54:23;102414.16;;;1.45;95.44
20630;BME280;17386;43.846;25.950;2023-02-12T04:56:49;102423.22;;;1.27;96.41
20630;BME280;17386;43.846;25.950;2023-02-12T04:59:15;102419.22;;;1.39;96.23
20630;BME280;17386;43.846;25.950;2023-02-12T05:01:41;102412.06;;;1.33;96.08
20630;BME280;17386;43.846;25.950;2023-02-12T05:04:08;102416.78;;;1.45;95.62
20630;BME280;17386;43.846;25.950;2023-02-12T05:06:35;102423.66;;;1.43;95.78
20630;BME280;17386;43.846;25.950;2023-02-12T05:09:02;102423.28;;;1.29;96.41
20630;BME280;17386;43.846;25.950;2023-02-12T05:11:27;102430.63;;;1.42;96.39
20630;BME280;17386;43.846;25.950;2023-02-12T05:13:53;102435.50;;;1.30;96.63
20630;BME280;17386;43.846;25.950;2023-02-12T05:16:20;102438.56;;;1.15;97.22
20630;BME280;17386;43.846;25.950;2023-02-12T05:18:46;102438.91;;;1.26;97.22
20630;BME280;17386;43.846;25.950;2023-02-12T05:21:12;102444.56;;;1.40;96.85
20630;BME280;17386;43.846;25.950;2023-02-12T05:23:38;102457.47;;;1.33;96.97
20630;BME280;17386;43.846;25.950;2023-02-12T05:26:07;102460.34;;;1.43;96.64
20630;BME280;17386;43.846;25.950;2023-02-12T05:28:32;102468.41;;;1.50;96.55
20630;BME280;17386;43.846;25.950;2023-02-12T05:31:03;102465.00;;;1.53;95.86
20630;BME280;17386;43.846;25.950;2023-02-12T05:33:29;102464.56;;;1.38;96.21
20630;BME280;17386;43.846;25.950;2023-02-12T05:35:55;102475.88;;;1.36;96.41
20630;BME280;17386;43.846;25.950;2023-02-12T05:38:20;102482.94;;;1.39;96.93
20630;BME280;17386;43.846;25.950;2023-02-12T05:40:46;102482.31;;;1.48;96.53
20630;BME280;17386;43.846;25.950;2023-02-12T05:43:12;102487.63;;;1.51;96.62
20630;BME280;17386;43.846;25.950;2023-02-12T05:45:37;102476.56;;;1.59;96.32
20630;BME280;17386;43.846;25.950;2023-02-12T05:48:05;102493.19;;;1.61;96.17
20630;BME280;17386;43.846;25.950;2023-02-12T05:50:31;102497.59;;;1.62;95.94
20630;BME280;17386;43.846;25.950;2023-02-12T05:52:59;102504.53;;;1.60;96.03
20630;BME280;17386;43.846;25.950;2023-02-12T05:55:24;102515.63;;;1.52;96.41
20630;BME280;17386;43.846;25.950;2023-02-12T05:57:50;102519.56;;;1.38;96.87
20630;BME280;17386;43.846;25.950;2023-02-12T06:00:15;102531.28;;;1.22;97.97
20630;BME280;17386;43.846;25.950;2023-02-12T06:02:41;102539.38;;;1.29;98.32
20630;BME280;17386;43.846;25.950;2023-02-12T06:05:06;102523.13;;;1.40;97.86
20630;BME280;17386;43.846;25.950;2023-02-12T06:07:32;102525.91;;;1.17;98.20
20630;BME280;17386;43.846;25.950;2023-02-12T06:09:57;102529.34;;;1.16;98.93
20630;BME280;17386;43.846;25.950;2023-02-12T06:12:23;102531.03;;;1.14;99.08
20630;BME280;17386;43.846;25.950;2023-02-12T06:14:49;102531.31;;;1.23;98.83
20630;BME280;17386;43.846;25.950;2023-02-12T06:17:14;102534.47;;;1.40;98.77
20630;BME280;17386;43.846;25.950;2023-02-12T06:19:40;102551.00;;;1.38;98.24
20630;BME280;17386;43.846;25.950;2023-02-12T06:22:05;102545.75;;;1.38;98.15
20630;BME280;17386;43.846;25.950;2023-02-12T06:24:30;102550.59;;;1.25;98.68
20630;BME280;17386;43.846;25.950;2023-02-12T06:26:56;102552.69;;;1.37;98.70
20630;BME280;17386;43.846;25.950;2023-02-12T06:29:22;102564.97;;;1.38;98.88
20630;BME280;17386;43.846;25.950;2023-02-12T06:31:48;102566.88;;;1.44;98.21
20630;BME280;17386;43.846;25.950;2023-02-12T06:34:14;102564.38;;;1.47;98.48
20630;BME280;17386;43.846;25.950;2023-02-12T06:36:44;102570.09;;;1.63;97.83
20630;BME280;17386;43.846;25.950;2023-02-12T06:39:15;102571.34;;;1.76;97.06
20630;BME280;17386;43.846;25.950;2023-02-12T06:41:41;102572.88;;;1.68;97.40
20630;BME280;17386;43.846;25.950;2023-02-12T06:44:07;102569.03;;;1.57;98.18
20630;BME280;17386;43.846;25.950;2023-02-12T06:46:33;102566.97;;;1.75;97.63
20630;BME280;17386;43.846;25.950;2023-02-12T06:48:59;102563.13;;;1.92;96.84
20630;BME280;17386;43.846;25.950;2023-02-12T06:51:26;102567.91;;;2.07;96.34
20630;BME280;17386;43.846;25.950;2023-02-12T06:53:54;102569.53;;;2.04;96.03
20630;BME280;17386;43.846;25.950;2023-02-12T06:56:21;102568.09;;;2.13;95.65
20630;BME280;17386;43.846;25.950;2023-02-12T06:58:52;102577.66;;;1.83;96.26
20630;BME280;17386;43.846;25.950;2023-02-12T07:01:21;102581.66;;;1.70;97.50
20630;BME280;17386;43.846;25.950;2023-02-12T07:03:49;102573.19;;;1.79;98.12
20630;BME280;17386;43.846;25.950;2023-02-12T07:06:15;102580.00;;;2.02;97.23
20630;BME280;17386;43.846;25.950;2023-02-12T07:08:41;102573.44;;;2.18;96.24
20630;BME280;17386;43.846;25.950;2023-02-12T07:11:06;102571.59;;;2.14;95.88
20630;BME280;17386;43.846;25.950;2023-02-12T07:13:32;102579.28;;;2.08;95.61
20630;BME280;17386;43.846;25.950;2023-02-12T07:16:06;102577.50;;;2.07;95.60
20630;BME280;17386;43.846;25.950;2023-02-12T07:18:33;102587.94;;;2.05;95.98
20630;BME280;17386;43.846;25.950;2023-02-12T07:20:58;102591.41;;;2.04;96.28
20630;BME280;17386;43.846;25.950;2023-02-12T07:23:24;102585.06;;;1.96;96.37
20630;BME280;17386;43.846;25.950;2023-02-12T07:26:01;102595.97;;;2.11;96.61
20630;BME280;17386;43.846;25.950;2023-02-12T07:28:27;102596.69;;;2.36;95.50
20630;BME280;17386;43.846;25.950;2023-02-12T07:30:52;102603.63;;;2.34;95.28
20630;BME280;17386;43.846;25.950;2023-02-12T07:33:18;102600.59;;;2.52;95.46
20630;BME280;17386;43.846;25.950;2023-02-12T07:35:44;102597.28;;;2.59;93.99
20630;BME280;17386;43.846;25.950;2023-02-12T07:38:10;102600.59;;;2.52;94.09
20630;BME280;17386;43.846;25.950;2023-02-12T07:40:35;102590.78;;;2.78;94.08
20630;BME280;17386;43.846;25.950;2023-02-12T07:43:01;102591.66;;;2.45;93.16
20630;BME280;17386;43.846;25.950;2023-02-12T07:45:26;102596.38;;;2.57;93.60
20630;BME280;17386;43.846;25.950;2023-02-12T07:47:52;102593.72;;;2.55;93.35
20630;BME280;17386;43.846;25.950;2023-02-12T07:50:17;102614.72;;;2.88;93.81
20630;BME280;17386;43.846;25.950;2023-02-12T07:52:43;102627.91;;;2.91;92.33
20630;BME280;17386;43.846;25.950;2023-02-12T07:55:09;102631.53;;;2.96;91.73
20630;BME280;17386;43.846;25.950;2023-02-12T07:57:35;102625.84;;;2.80;92.58
20630;BME280;17386;43.846;25.950;2023-02-12T08:00:00;102626.44;;;2.38;93.86
20630;BME280;17386;43.846;25.950;2023-02-12T08:02:26;102627.25;;;2.35;94.96
20630;BME280;17386;43.846;25.950;2023-02-12T08:04:55;102634.81;;;2.55;94.13
20630;BME280;17386;43.846;25.950;2023-02-12T08:07:22;102628.38;;;2.75;93.36
20630;BME280;17386;43.846;25.950;2023-02-12T08:09:47;102626.13;;;2.90;91.74
20630;BME280;17386;43.846;25.950;2023-02-12T08:12:13;102634.63;;;3.15;91.45
20630;BME280;17386;43.846;25.950;2023-02-12T08:14:38;102641.25;;;3.35;90.60
20630;BME280;17386;43.846;25.950;2023-02-12T08:17:03;102641.34;;;3.38;88.84
20630;BME280;17386;43.846;25.950;2023-02-12T08:19:29;102647.28;;;3.29;89.48
20630;BME280;17386;43.846;25.950;2023-02-12T08:21:55;102651.66;;;3.31;89.07
20630;BME280;17386;43.846;25.950;2023-02-12T08:24:20;102660.09;;;3.53;89.32
20630;BME280;17386;43.846;25.950;2023-02-12T08:26:46;102653.50;;;3.35;89.25
20630;BME280;17386;43.846;25.950;2023-02-12T08:29:15;102667.38;;;3.29;89.04
20630;BME280;17386;43.846;25.950;2023-02-12T08:31:43;102670.09;;;2.99;90.92
20630;BME280;17386;43.846;25.950;2023-02-12T08:36:41;102673.19;;;3.16;91.26
20630;BME280;17386;43.846;25.950;2023-02-12T08:39:07;102679.31;;;3.51;89.76
20630;BME280;17386;43.846;25.950;2023-02-12T08:41:33;102680.88;;;3.80;88.24
20630;BME280;17386;43.846;25.950;2023-02-12T08:44:01;102687.25;;;3.54;87.90
20630;BME280;17386;43.846;25.950;2023-02-12T08:46:33;102696.97;;;3.22;89.70
20630;BME280;17386;43.846;25.950;2023-02-12T08:49:04;102704.38;;;3.37;88.98
20630;BME280;17386;43.846;25.950;2023-02-12T08:51:32;102703.22;;;3.27;89.19
20630;BME280;17386;43.846;25.950;2023-02-12T08:54:00;102721.09;;;3.40;88.91
20630;BME280;17386;43.846;25.950;2023-02-12T08:56:27;102722.78;;;3.38;89.65
20630;BME280;17386;43.846;25.950;2023-02-12T08:58:55;102722.78;;;3.38;89.28
20630;BME280;17386;43.846;25.950;2023-02-12T09:01:23;102721.97;;;3.41;88.97
20630;BME280;17386;43.846;25.950;2023-02-12T09:03:49;102725.84;;;3.56;89.33
20630;BME280;17386;43.846;25.950;2023-02-12T09:06:16;102719.41;;;3.78;88.46
20630;BME280;17386;43.846;25.950;2023-02-12T09:08:42;102725.94;;;3.96;87.19
20630;BME280;17386;43.846;25.950;2023-02-12T09:11:13;102724.34;;;4.02;86.80
20630;BME280;17386;43.846;25.950;2023-02-12T09:13:41;102730.28;;;3.94;87.09
20630;BME280;17386;43.846;25.950;2023-02-12T09:16:07;102728.97;;;3.76;86.61
20630;BME280;17386;43.846;25.950;2023-02-12T09:18:33;102736.31;;;3.53;88.57
20630;BME280;17386;43.846;25.950;2023-02-12T09:21:01;102745.56;;;3.74;87.89
20630;BME280;17386;43.846;25.950;2023-02-12T09:23:27;102745.00;;;3.86;87.47
20630;BME280;17386;43.846;25.950;2023-02-12T09:25:52;102735.66;;;3.98;86.61
20630;BME280;17386;43.846;25.950;2023-02-12T09:28:18;102731.50;;;4.09;86.03
20630;BME280;17386;43.846;25.950;2023-02-12T09:30:43;102734.41;;;4.20;85.31
20630;BME280;17386;43.846;25.950;2023-02-12T09:33:09;102737.25;;;3.92;86.30
20630;BME280;17386;43.846;25.950;2023-02-12T09:35:36;102738.41;;;4.04;86.66
20630;BME280;17386;43.846;25.950;2023-02-12T09:38:02;102742.88;;;4.07;86.30
20630;BME280;17386;43.846;25.950;2023-02-12T09:49:08;102740.03;;;3.63;88.00
20630;BME280;17386;43.846;25.950;2023-02-12T09:51:36;102743.81;;;3.73;87.97
20630;BME280;17386;43.846;25.950;2023-02-12T09:54:06;102755.53;;;3.87;87.26
20630;BME280;17386;43.846;25.950;2023-02-12T09:56:36;102757.66;;;4.02;86.58
20630;BME280;17386;43.846;25.950;2023-02-12T09:59:06;102760.53;;;4.13;86.32
20630;BME280;17386;43.846;25.950;2023-02-12T10:01:32;102751.38;;;3.97;86.62
20630;BME280;17386;43.846;25.950;2023-02-12T10:03:57;102758.28;;;3.92;87.13
20630;BME280;17386;43.846;25.950;2023-02-12T10:06:27;102740.13;;;3.66;87.36
20630;BME280;17386;43.846;25.950;2023-02-12T10:11:50;102762.91;;;3.66;88.62
20630;BME280;17386;43.846;25.950;2023-02-12T10:20:00;102767.97;;;4.32;85.76
20630;BME280;17386;43.846;25.950;2023-02-12T10:27:50;102772.47;;;4.36;85.47
20630;BME280;17386;43.846;25.950;2023-02-12T10:30:44;102766.56;;;4.46;84.77
20630;BME280;17386;43.846;25.950;2023-02-12T10:33:18;102766.03;;;4.62;84.05
20630;BME280;17386;43.846;25.950;2023-02-12T10:35:51;102751.25;;;4.71;83.43
20630;BME280;17386;43.846;25.950;2023-02-12T10:38:30;102758.44;;;4.78;83.30
20630;BME280;17386;43.846;25.950;2023-02-12T10:40:56;102764.94;;;4.95;82.63
20630;BME280;17386;43.846;25.950;2023-02-12T10:43:26;102762.34;;;4.98;81.42
20630;BME280;17386;43.846;25.950;2023-02-12T10:45:52;102758.88;;;5.01;81.31
20630;BME280;17386;43.846;25.950;2023-02-12T10:48:23;102777.25;;;4.96;80.86
20630;BME280;17386;43.846;25.950;2023-02-12T10:53:41;102783.47;;;4.59;82.60
20630;BME280;17386;43.846;25.950;2023-02-12T10:58:35;102799.38;;;4.63;82.49
20630;BME280;17386;43.846;25.950;2023-02-12T11:01:01;102800.66;;;4.81;81.56
20630;BME280;17386;43.846;25.950;2023-02-12T11:03:30;102796.47;;;4.51;82.64
20630;BME280;17386;43.846;25.950;2023-02-12T11:06:17;102796.78;;;4.65;82.15
20630;BME280;17386;43.846;25.950;2023-02-12T11:08:43;102792.22;;;4.56;83.30
20630;BME280;17386;43.846;25.950;2023-02-12T11:11:23;102806.66;;;4.74;83.48
20630;BME280;17386;43.846;25.950;2023-02-12T11:14:16;102806.81;;;4.83;83.34
20630;BME280;17386;43.846;25.950;2023-02-12T11:16:52;102816.81;;;4.99;82.84
20630;BME280;17386;43.846;25.950;2023-02-12T11:19:21;102810.84;;;5.08;82.72
20630;BME280;17386;43.846;25.950;2023-02-12T11:21:48;102799.38;;;5.06;82.31
20630;BME280;17386;43.846;25.950;2023-02-12T11:24:31;102792.03;;;4.89;81.36
20630;BME280;17386;43.846;25.950;2023-02-12T11:29:42;102798.50;;;5.05;81.83
20630;BME280;17386;43.846;25.950;2023-02-12T11:32:15;102798.53;;;5.07;81.82
20630;BME280;17386;43.846;25.950;2023-02-12T11:34:41;102804.72;;;5.09;81.44
20630;BME280;17386;43.846;25.950;2023-02-12T11:37:16;102801.72;;;4.90;81.48
20630;BME280;17386;43.846;25.950;2023-02-12T11:39:46;102806.59;;;4.72;82.63
20630;BME280;17386;43.846;25.950;2023-02-12T11:42:18;102806.50;;;4.68;83.50
20630;BME280;17386;43.846;25.950;2023-02-12T11:44:49;102802.56;;;4.88;83.25
20630;BME280;17386;43.846;25.950;2023-02-12T11:47:18;102809.97;;;4.66;83.37
20630;BME280;17386;43.846;25.950;2023-02-12T11:49:50;102806.22;;;4.55;84.53
20630;BME280;17386;43.846;25.950;2023-02-12T11:52:28;102807.44;;;4.71;83.89
20630;BME280;17386;43.846;25.950;2023-02-12T11:54:59;102802.31;;;4.77;84.01
20630;BME280;17386;43.846;25.950;2023-02-12T11:57:45;102801.03;;;5.01;83.71
20630;BME280;17386;43.846;25.950;2023-02-12T12:00:18;102803.16;;;5.18;83.20
20630;BME280;17386;43.846;25.950;2023-02-12T12:03:01;102813.72;;;4.76;84.27
20630;BME280;17386;43.846;25.950;2023-02-12T12:05:35;102803.59;;;4.96;84.82
20630;BME280;17386;43.846;25.950;2023-02-12T12:08:04;102802.91;;;5.06;84.21
20630;BME280;17386;43.846;25.950;2023-02-12T12:10:48;102794.72;;;5.36;83.24
20630;BME280;17386;43.846;25.950;2023-02-12T12:13:19;102794.25;;;5.59;82.11
20630;BME280;17386;43.846;25.950;2023-02-12T12:15:51;102801.78;;;5.89;81.24
20630;BME280;17386;43.846;25.950;2023-02-12T12:18:53;102793.53;;;6.20;78.78
20630;BME280;17386;43.846;25.950;2023-02-12T12:21:40;102794.53;;;6.28;76.98
20630;BME280;17386;43.846;25.950;2023-02-12T12:24:14;102796.16;;;6.19;77.54
20630;BME280;17386;43.846;25.950;2023-02-12T12:26:46;102800.38;;;6.09;78.27
20630;BME280;17386;43.846;25.950;2023-02-12T12:29:23;102798.59;;;6.08;78.20
20630;BME280;17386;43.846;25.950;2023-02-12T12:32:11;102803.41;;;5.82;78.47
20630;BME280;17386;43.846;25.950;2023-02-12T12:34:39;102799.19;;;5.90;78.54
20630;BME280;17386;43.846;25.950;2023-02-12T12:37:34;102802.09;;;6.04;78.41
20630;BME280;17386;43.846;25.950;2023-02-12T12:40:40;102808.28;;;6.09;76.79
20630;BME280;17386;43.846;25.950;2023-02-12T13:10:02;102842.81;;;5.25;78.24
20630;BME280;17386;43.846;25.950;2023-02-12T13:15:35;102855.59;;;5.06;79.34
20630;BME280;17386;43.846;25.950;2023-02-12T13:18:28;102861.63;;;5.01;79.94
20630;BME280;17386;43.846;25.950;2023-02-12T13:21:12;102860.88;;;5.08;80.13
20630;BME280;17386;43.846;25.950;2023-02-12T13:26:41;102871.66;;;5.18;79.03
20630;BME280;17386;43.846;25.950;2023-02-12T13:29:26;102880.47;;;5.20;78.29
20630;BME280;17386;43.846;25.950;2023-02-12T13:32:00;102877.19;;;5.31;78.35
20630;BME280;17386;43.846;25.950;2023-02-12T13:34:28;102884.47;;;5.42;77.48
20630;BME280;17386;43.846;25.950;2023-02-12T13:36:56;102877.44;;;5.43;76.92
20630;BME280;17386;43.846;25.950;2023-02-12T13:39:39;102886.00;;;5.33;77.70
20630;BME280;17386;43.846;25.950;2023-02-12T13:44:49;102886.25;;;5.45;77.94
20630;BME280;17386;43.846;25.950;2023-02-12T13:48:04;102888.78;;;5.40;77.30
20630;BME280;17386;43.846;25.950;2023-02-12T13:52:57;102898.16;;;5.25;78.25
20630;BME280;17386;43.846;25.950;2023-02-12T13:55:33;102890.56;;;5.41;77.92
20630;BME280;17386;43.846;25.950;2023-02-12T14:01:38;102894.28;;;5.49;77.36
20630;BME280;17386;43.846;25.950;2023-02-12T14:04:34;102893.56;;;5.58;76.68
20630;BME280;17386;43.846;25.950;2023-02-12T14:07:14;102896.31;;;5.64;76.24
20630;BME280;17386;43.846;25.950;2023-02-12T14:09:40;102884.78;;;5.59;76.55
20630;BME280;17386;43.846;25.950;2023-02-12T14:12:13;102879.75;;;5.28;77.74
20630;BME280;17386;43.846;25.950;2023-02-12T14:20:21;102897.44;;;4.92;79.49
20630;BME280;17386;43.846;25.950;2023-02-12T14:37:57;102920.09;;;4.84;82.51
20630;BME280;17386;43.846;25.950;2023-02-12T14:40:49;102913.69;;;4.73;82.62
20630;BME280;17386;43.846;25.950;2023-02-12T14:43:25;102935.00;;;4.82;82.74
20630;BME280;17386;43.846;25.950;2023-02-12T14:51:57;102943.44;;;4.68;83.58
20630;BME280;17386;43.846;25.950;2023-02-12T14:56:58;102932.25;;;4.79;83.52
20630;BME280;17386;43.846;25.950;2023-02-12T14:59:27;102942.88;;;4.82;83.00
20630;BME280;17386;43.846;25.950;2023-02-12T15:01:58;102951.78;;;4.87;82.47
20630;BME280;17386;43.846;25.950;2023-02-12T15:04:31;102957.88;;;4.86;81.45
20630;BME280;17386;43.846;25.950;2023-02-12T15:07:02;102963.06;;;4.82;81.69
20630;BME280;17386;43.846;25.950;2023-02-12T15:10:03;102964.69;;;4.77;81.38
20630;BME280;17386;43.846;25.950;2023-02-12T15:12:42;102964.38;;;4.63;81.03
20630;BME280;17386;43.846;25.950;2023-02-12T15:18:01;102983.69;;;4.29;81.71
20630;BME280;17386;43.846;25.950;2023-02-12T15:20:38;102975.66;;;4.24;81.98
20630;BME280;17386;43.846;25.950;2023-02-12T15:23:42;102984.41;;;4.23;82.36
20630;BME280;17386;43.846;25.950;2023-02-12T15:26:19;102988.81;;;4.24;82.27
20630;BME280;17386;43.846;25.950;2023-02-12T15:28:49;102990.53;;;4.22;82.27
20630;BME280;17386;43.846;25.950;2023-02-12T15:31:18;102982.44;;;4.15;82.48
20630;BME280;17386;43.846;25.950;2023-02-12T15:33:54;102995.66;;;4.18;82.70
20630;BME280;17386;43.846;25.950;2023-02-12T15:36:23;103007.84;;;4.14;83.02